sensor_id;sensor_type;location;lat;lon;timestamp;pressure;altitude;pressure_sealevel;temperature;humidity
47913;BME280;33676;51.006;17.180;2023-04-07T00:00:53;100439.32;;;5.46;69.70
47913;BME280;33676;51.006;17.180;2023-04-07T00:03:22;100437.04;;;5.50;70.04
47913;BME280;33676;51.006;17.180;2023-04-07T00:05:51;100433.15;;;5.48;70.08
47913;BME280;33676;51.006;17.180;2023-04-07T00:08:19;100430.90;;;5.45;70.43
47913;BME280;33676;51.006;17.180;2023-04-07T00:10:47;100428.77;;;5.43;70.90
47913;BME280;33676;51.006;17.180;2023-04-07T00:13:16;100423.42;;;5.36;70.90
47913;BME280;33676;51.006;17.180;2023-04-07T00:15:44;100425.66;;;5.30;71.19
47913;BME280;33676;51.006;17.180;2023-04-07T00:18:13;100420.42;;;5.24;71.60
47913;BME280;33676;51.006;17.180;2023-04-07T00:20:41;100418.45;;;5.22;71.68
47913;BME280;33676;51.006;17.180;2023-04-07T00:23:10;100411.16;;;5.19;71.95
47913;BME280;33676;51.006;17.180;2023-04-07T00:28:52;100411.30;;;5.17;72.49
47913;BME280;33676;51.006;17.180;2023-04-07T00:31:20;100410.83;;;5.13;72.68
47913;BME280;33676;51.006;17.180;2023-04-07T00:33:48;100408.51;;;5.08;72.87
47913;BME280;33676;51.006;17.180;2023-04-07T00:36:17;100406.11;;;5.04;73.05
47913;BME280;33676;51.006;17.180;2023-04-07T00:38:45;100405.56;;;5.01;73.26
47913;BME280;33676;51.006;17.180;2023-04-07T00:41:14;100399.52;;;4.97;73.55
47913;BME280;33676;51.006;17.180;2023-04-07T00:43:42;100400.71;;;4.97;73.68
47913;BME280;33676;51.006;17.180;2023-04-07T00:46:11;100396.55;;;4.98;73.86
47913;BME280;33676;51.006;17.180;2023-04-07T00:48:39;100389.13;;;4.97;73.94
47913;BME280;33676;51.006;17.180;2023-04-07T00:51:08;100386.56;;;4.93;74.04
47913;BME280;33676;51.006;17.180;2023-04-07T00:53:36;100378.89;;;4.91;74.25
47913;BME280;33676;51.006;17.180;2023-04-07T00:56:05;100371.88;;;4.86;74.44
47913;BME280;33676;51.006;17.180;2023-04-07T00:58:33;100372.48;;;4.78;74.69
47913;BME280;33676;51.006;17.180;2023-04-07T01:01:08;100372.88;;;4.70;75.09
47913;BME280;33676;51.006;17.180;2023-04-07T01:06:50;100372.42;;;4.62;75.66
47913;BME280;33676;51.006;17.180;2023-04-07T01:09:34;100369.81;;;4.63;75.68
47913;BME280;33676;51.006;17.180;2023-04-07T01:12:24;100366.63;;;4.61;75.96
47913;BME280;33676;51.006;17.180;2023-04-07T01:15:18;100370.02;;;4.56;76.32
47913;BME280;33676;51.006;17.180;2023-04-07T01:17:59;100364.48;;;4.49;76.51
47913;BME280;33676;51.006;17.180;2023-04-07T01:20:31;100369.77;;;4.44;76.61
47913;BME280;33676;51.006;17.180;2023-04-07T01:23:04;100368.41;;;4.43;76.78
47913;BME280;33676;51.006;17.180;2023-04-07T01:25:53;100370.13;;;4.43;76.93
47913;BME280;33676;51.006;17.180;2023-04-07T01:31:40;100366.35;;;4.50;77.53
47913;BME280;33676;51.006;17.180;2023-04-07T01:34:10;100364.85;;;4.52;77.67
47913;BME280;33676;51.006;17.180;2023-04-07T01:36:41;100360.50;;;4.52;78.02
47913;BME280;33676;51.006;17.180;2023-04-07T01:39:10;100359.49;;;4.52;78.07
47913;BME280;33676;51.006;17.180;2023-04-07T01:41:40;100358.91;;;4.50;78.00
47913;BME280;33676;51.006;17.180;2023-04-07T01:44:35;100352.71;;;4.49;78.08
47913;BME280;33676;51.006;17.180;2023-04-07T01:47:04;100353.34;;;4.50;78.16
47913;BME280;33676;51.006;17.180;2023-04-07T01:49:34;100352.65;;;4.50;78.48
47913;BME280;33676;51.006;17.180;2023-04-07T01:52:04;100351.84;;;4.49;78.58
47913;BME280;33676;51.006;17.180;2023-04-07T01:54:34;100351.44;;;4.47;78.67
47913;BME280;33676;51.006;17.180;2023-04-07T01:57:02;100347.98;;;4.44;78.81
47913;BME280;33676;51.006;17.180;2023-04-07T01:59:31;100344.64;;;4.41;78.68
47913;BME280;33676;51.006;17.180;2023-04-07T02:01:59;100344.44;;;4.38;79.01
47913;BME280;33676;51.006;17.180;2023-04-07T02:04:39;100339.03;;;4.32;78.89
47913;BME280;33676;51.006;17.180;2023-04-07T02:07:48;100332.11;;;4.22;79.15
47913;BME280;33676;51.006;17.180;2023-04-07T02:10:45;100332.80;;;4.09;79.36
47913;BME280;33676;51.006;17.180;2023-04-07T02:13:18;100340.73;;;4.03;79.54
47913;BME280;33676;51.006;17.180;2023-04-07T02:15:48;100341.59;;;3.99;79.56
47913;BME280;33676;51.006;17.180;2023-04-07T02:18:18;100340.70;;;3.96;79.93
47913;BME280;33676;51.006;17.180;2023-04-07T02:20:49;100334.96;;;3.93;80.14
47913;BME280;33676;51.006;17.180;2023-04-07T02:23:18;100330.89;;;3.88;80.40
47913;BME280;33676;51.006;17.180;2023-04-07T02:25:47;100326.63;;;3.80;80.53
47913;BME280;33676;51.006;17.180;2023-04-07T02:28:16;100328.23;;;3.75;80.63
47913;BME280;33676;51.006;17.180;2023-04-07T02:30:44;100327.07;;;3.75;80.81
47913;BME280;33676;51.006;17.180;2023-04-07T02:33:13;100324.09;;;3.76;81.08
47913;BME280;33676;51.006;17.180;2023-04-07T02:36:08;100325.77;;;3.80;81.21
47913;BME280;33676;51.006;17.180;2023-04-07T02:38:36;100329.73;;;3.80;81.46
47913;BME280;33676;51.006;17.180;2023-04-07T02:41:05;100327.33;;;3.80;81.35
47913;BME280;33676;51.006;17.180;2023-04-07T02:43:35;100326.58;;;3.78;81.61
47913;BME280;33676;51.006;17.180;2023-04-07T02:46:08;100320.48;;;3.75;81.74
47913;BME280;33676;51.006;17.180;2023-04-07T02:48:37;100314.98;;;3.71;81.83
47913;BME280;33676;51.006;17.180;2023-04-07T02:51:05;100310.82;;;3.67;81.81
47913;BME280;33676;51.006;17.180;2023-04-07T02:53:34;100307.67;;;3.68;81.85
47913;BME280;33676;51.006;17.180;2023-04-07T02:56:02;100309.52;;;3.69;82.05
47913;BME280;33676;51.006;17.180;2023-04-07T02:58:31;100311.42;;;3.69;81.95
47913;BME280;33676;51.006;17.180;2023-04-07T03:00:59;100314.74;;;3.69;82.22
47913;BME280;33676;51.006;17.180;2023-04-07T03:03:28;100318.09;;;3.67;82.23
47913;BME280;33676;51.006;17.180;2023-04-07T03:05:57;100316.04;;;3.67;82.34
47913;BME280;33676;51.006;17.180;2023-04-07T03:08:33;100313.91;;;3.68;82.73
47913;BME280;33676;51.006;17.180;2023-04-07T03:11:01;100315.25;;;3.69;82.45
47913;BME280;33676;51.006;17.180;2023-04-07T03:13:30;100315.88;;;3.70;82.54
47913;BME280;33676;51.006;17.180;2023-04-07T03:15:59;100320.31;;;3.71;82.82
47913;BME280;33676;51.006;17.180;2023-04-07T03:18:27;100319.27;;;3.71;82.99
47913;BME280;33676;51.006;17.180;2023-04-07T03:20:56;100314.94;;;3.68;83.02
47913;BME280;33676;51.006;17.180;2023-04-07T03:23:24;100317.51;;;3.65;83.01
47913;BME280;33676;51.006;17.180;2023-04-07T03:25:53;100321.17;;;3.64;83.12
47913;BME280;33676;51.006;17.180;2023-04-07T03:28:21;100322.69;;;3.65;83.02
47913;BME280;33676;51.006;17.180;2023-04-07T03:30:50;100327.11;;;3.66;83.06
47913;BME280;33676;51.006;17.180;2023-04-07T03:33:18;100325.57;;;3.70;83.01
47913;BME280;33676;51.006;17.180;2023-04-07T03:35:47;100326.97;;;3.73;82.98
47913;BME280;33676;51.006;17.180;2023-04-07T03:52:53;100310.02;;;3.87;83.21
47913;BME280;33676;51.006;17.180;2023-04-07T03:55:22;100313.54;;;3.89;82.92
47913;BME280;33676;51.006;17.180;2023-04-07T03:57:51;100310.80;;;3.96;83.17
47913;BME280;33676;51.006;17.180;2023-04-07T04:00:19;100307.59;;;4.02;83.26
47913;BME280;33676;51.006;17.180;2023-04-07T04:02:48;100308.45;;;4.02;83.20
47913;BME280;33676;51.006;17.180;2023-04-07T04:05:17;100306.92;;;4.01;83.38
47913;BME280;33676;51.006;17.180;2023-04-07T04:07:45;100305.98;;;3.98;83.15
47913;BME280;33676;51.006;17.180;2023-04-07T04:10:14;100307.34;;;3.95;83.15
47913;BME280;33676;51.006;17.180;2023-04-07T04:12:43;100305.73;;;3.94;83.12
47913;BME280;33676;51.006;17.180;2023-04-07T04:15:13;100303.92;;;3.91;83.25
47913;BME280;33676;51.006;17.180;2023-04-07T04:17:42;100309.77;;;3.92;83.17
47913;BME280;33676;51.006;17.180;2023-04-07T04:20:11;100309.17;;;3.90;83.38
47913;BME280;33676;51.006;17.180;2023-04-07T04:22:39;100309.12;;;3.88;83.35
47913;BME280;33676;51.006;17.180;2023-04-07T04:25:08;100310.63;;;3.85;83.66
47913;BME280;33676;51.006;17.180;2023-04-07T04:27:37;100313.88;;;3.82;83.81
47913;BME280;33676;51.006;17.180;2023-04-07T04:30:06;100313.11;;;3.77;83.66
47913;BME280;33676;51.006;17.180;2023-04-07T04:32:35;100309.60;;;3.78;83.82
47913;BME280;33676;51.006;17.180;2023-04-07T04:35:04;100306.40;;;3.80;84.04
47913;BME280;33676;51.006;17.180;2023-04-07T04:37:33;100311.58;;;3.80;83.88
47913;BME280;33676;51.006;17.180;2023-04-07T04:40:02;100310.84;;;3.77;83.90
47913;BME280;33676;51.006;17.180;2023-04-07T04:42:31;100313.81;;;3.77;84.21
47913;BME280;33676;51.006;17.180;2023-04-07T04:45:01;100313.23;;;3.78;84.45
47913;BME280;33676;51.006;17.180;2023-04-07T04:47:29;100310.79;;;3.79;84.50
47913;BME280;33676;51.006;17.180;2023-04-07T04:49:58;100312.38;;;3.81;84.51
47913;BME280;33676;51.006;17.180;2023-04-07T04:52:26;100313.20;;;3.86;84.59
47913;BME280;33676;51.006;17.180;2023-04-07T04:54:56;100313.72;;;3.89;84.67
47913;BME280;33676;51.006;17.180;2023-04-07T04:57:24;100312.29;;;3.90;84.47
47913;BME280;33676;51.006;17.180;2023-04-07T04:59:53;100313.47;;;3.91;84.51
47913;BME280;33676;51.006;17.180;2023-04-07T05:02:22;100318.15;;;3.90;84.80
47913;BME280;33676;51.006;17.180;2023-04-07T05:04:52;100314.46;;;3.92;84.75
47913;BME280;33676;51.006;17.180;2023-04-07T05:07:22;100308.73;;;3.92;84.61
47913;BME280;33676;51.006;17.180;2023-04-07T05:09:53;100312.02;;;3.95;84.78
47913;BME280;33676;51.006;17.180;2023-04-07T05:12:23;100311.52;;;3.98;84.66
47913;BME280;33676;51.006;17.180;2023-04-07T05:14:52;100309.42;;;3.99;84.69
47913;BME280;33676;51.006;17.180;2023-04-07T05:17:21;100310.52;;;3.98;84.62
47913;BME280;33676;51.006;17.180;2023-04-07T05:19:50;100305.95;;;3.96;85.03
47913;BME280;33676;51.006;17.180;2023-04-07T05:22:20;100307.10;;;3.93;84.97
47913;BME280;33676;51.006;17.180;2023-04-07T05:24:48;100307.80;;;3.93;84.66
47913;BME280;33676;51.006;17.180;2023-04-07T05:27:17;100314.77;;;3.92;84.65
47913;BME280;33676;51.006;17.180;2023-04-07T05:29:46;100319.06;;;3.93;84.68
47913;BME280;33676;51.006;17.180;2023-04-07T05:32:15;100322.73;;;3.99;84.90
47913;BME280;33676;51.006;17.180;2023-04-07T05:34:45;100318.18;;;4.04;84.79
47913;BME280;33676;51.006;17.180;2023-04-07T05:37:15;100316.41;;;4.05;84.78
47913;BME280;33676;51.006;17.180;2023-04-07T05:39:43;100321.30;;;4.04;84.71
47913;BME280;33676;51.006;17.180;2023-04-07T05:42:14;100322.20;;;4.00;84.62
47913;BME280;33676;51.006;17.180;2023-04-07T05:44:45;100323.27;;;3.99;84.62
47913;BME280;33676;51.006;17.180;2023-04-07T05:47:14;100325.64;;;4.00;84.54
47913;BME280;33676;51.006;17.180;2023-04-07T05:49:43;100319.67;;;4.02;84.57
47913;BME280;33676;51.006;17.180;2023-04-07T05:52:15;100320.24;;;4.04;84.73
47913;BME280;33676;51.006;17.180;2023-04-07T05:54:44;100324.80;;;4.10;84.78
47913;BME280;33676;51.006;17.180;2023-04-07T05:57:13;100322.77;;;4.16;84.98
47913;BME280;33676;51.006;17.180;2023-04-07T05:59:42;100318.86;;;4.21;85.07
47913;BME280;33676;51.006;17.180;2023-04-07T06:02:12;100319.27;;;4.23;85.05
47913;BME280;33676;51.006;17.180;2023-04-07T06:04:57;100319.05;;;4.23;84.83
47913;BME280;33676;51.006;17.180;2023-04-07T06:07:29;100319.91;;;4.24;84.69
47913;BME280;33676;51.006;17.180;2023-04-07T06:10:07;100323.41;;;4.23;84.47
47913;BME280;33676;51.006;17.180;2023-04-07T06:12:40;100321.39;;;4.22;84.38
47913;BME280;33676;51.006;17.180;2023-04-07T06:15:12;100318.23;;;4.23;84.53
47913;BME280;33676;51.006;17.180;2023-04-07T06:17:42;100325.16;;;4.26;84.69
47913;BME280;33676;51.006;17.180;2023-04-07T06:20:17;100322.90;;;4.23;84.69
47913;BME280;33676;51.006;17.180;2023-04-07T06:22:48;100323.71;;;4.21;84.68
47913;BME280;33676;51.006;17.180;2023-04-07T06:25:17;100321.02;;;4.19;84.51
47913;BME280;33676;51.006;17.180;2023-04-07T06:27:49;100321.88;;;4.23;84.79
47913;BME280;33676;51.006;17.180;2023-04-07T06:30:17;100328.34;;;4.28;84.88
47913;BME280;33676;51.006;17.180;2023-04-07T06:32:48;100323.95;;;4.33;84.86
47913;BME280;33676;51.006;17.180;2023-04-07T06:35:19;100322.45;;;4.35;85.24
47913;BME280;33676;51.006;17.180;2023-04-07T06:37:47;100317.56;;;4.36;85.34
47913;BME280;33676;51.006;17.180;2023-04-07T06:40:16;100315.77;;;4.37;85.39
47913;BME280;33676;51.006;17.180;2023-04-07T06:42:44;100318.33;;;4.38;85.15
47913;BME280;33676;51.006;17.180;2023-04-07T06:45:13;100316.21;;;4.39;85.16
47913;BME280;33676;51.006;17.180;2023-04-07T06:47:41;100320.80;;;4.37;84.87
47913;BME280;33676;51.006;17.180;2023-04-07T06:50:10;100318.43;;;4.36;85.17
47913;BME280;33676;51.006;17.180;2023-04-07T06:52:44;100312.59;;;4.35;85.07
47913;BME280;33676;51.006;17.180;2023-04-07T06:55:22;100311.80;;;4.30;85.26
47913;BME280;33676;51.006;17.180;2023-04-07T06:57:50;100311.92;;;4.24;85.30
47913;BME280;33676;51.006;17.180;2023-04-07T07:00:24;100308.02;;;4.20;85.47
47913;BME280;33676;51.006;17.180;2023-04-07T07:02:53;100307.30;;;4.17;85.44
47913;BME280;33676;51.006;17.180;2023-04-07T07:05:22;100304.32;;;4.15;85.42
47913;BME280;33676;51.006;17.180;2023-04-07T07:07:51;100303.93;;;4.12;85.47
47913;BME280;33676;51.006;17.180;2023-04-07T07:10:20;100301.80;;;4.13;85.60
47913;BME280;33676;51.006;17.180;2023-04-07T07:12:50;100299.80;;;4.18;86.09
47913;BME280;33676;51.006;17.180;2023-04-07T07:15:19;100297.85;;;4.18;86.00
47913;BME280;33676;51.006;17.180;2023-04-07T07:17:47;100298.20;;;4.19;86.15
47913;BME280;33676;51.006;17.180;2023-04-07T07:20:18;100301.90;;;4.17;86.40
47913;BME280;33676;51.006;17.180;2023-04-07T07:22:48;100304.63;;;4.18;86.39
47913;BME280;33676;51.006;17.180;2023-04-07T07:25:18;100310.40;;;4.17;86.29
47913;BME280;33676;51.006;17.180;2023-04-07T07:27:46;100314.08;;;4.20;86.50
47913;BME280;33676;51.006;17.180;2023-04-07T07:30:21;100317.26;;;4.25;86.78
47913;BME280;33676;51.006;17.180;2023-04-07T07:32:50;100314.73;;;4.30;86.97
47913;BME280;33676;51.006;17.180;2023-04-07T07:35:22;100318.18;;;4.34;86.87
47913;BME280;33676;51.006;17.180;2023-04-07T07:37:52;100317.20;;;4.33;86.67
47913;BME280;33676;51.006;17.180;2023-04-07T07:40:20;100319.92;;;4.30;86.49
47913;BME280;33676;51.006;17.180;2023-04-07T07:42:50;100324.98;;;4.30;86.63
47913;BME280;33676;51.006;17.180;2023-04-07T07:45:19;100330.21;;;4.29;86.51
47913;BME280;33676;51.006;17.180;2023-04-07T07:47:47;100330.77;;;4.31;86.91
47913;BME280;33676;51.006;17.180;2023-04-07T07:50:16;100331.19;;;4.33;87.11
47913;BME280;33676;51.006;17.180;2023-04-07T07:52:44;100337.54;;;4.38;87.19
47913;BME280;33676;51.006;17.180;2023-04-07T07:55:13;100334.36;;;4.39;87.11
47913;BME280;33676;51.006;17.180;2023-04-07T07:57:41;100334.27;;;4.41;87.16
47913;BME280;33676;51.006;17.180;2023-04-07T08:00:10;100337.30;;;4.42;87.21
47913;BME280;33676;51.006;17.180;2023-04-07T08:02:39;100332.89;;;4.44;87.46
47913;BME280;33676;51.006;17.180;2023-04-07T08:05:08;100332.87;;;4.44;87.23
47913;BME280;33676;51.006;17.180;2023-04-07T08:07:36;100336.02;;;4.44;87.12
47913;BME280;33676;51.006;17.180;2023-04-07T08:10:05;100336.02;;;4.44;87.06
47913;BME280;33676;51.006;17.180;2023-04-07T08:12:34;100333.30;;;4.46;87.18
47913;BME280;33676;51.006;17.180;2023-04-07T08:15:03;100332.90;;;4.50;87.20
47913;BME280;33676;51.006;17.180;2023-04-07T08:17:31;100333.09;;;4.50;86.92
47913;BME280;33676;51.006;17.180;2023-04-07T08:20:00;100333.81;;;4.53;87.14
47913;BME280;33676;51.006;17.180;2023-04-07T08:22:29;100338.52;;;4.56;87.24
47913;BME280;33676;51.006;17.180;2023-04-07T08:24:57;100338.55;;;4.58;87.26
47913;BME280;33676;51.006;17.180;2023-04-07T08:27:26;100335.24;;;4.65;87.35
47913;BME280;33676;51.006;17.180;2023-04-07T08:30:00;100332.11;;;4.72;87.40
47913;BME280;33676;51.006;17.180;2023-04-07T08:32:38;100333.65;;;4.79;87.35
47913;BME280;33676;51.006;17.180;2023-04-07T08:35:08;100335.35;;;4.82;87.02
47913;BME280;33676;51.006;17.180;2023-04-07T08:37:38;100327.92;;;4.89;87.11
47913;BME280;33676;51.006;17.180;2023-04-07T08:40:07;100326.72;;;4.98;87.08
47913;BME280;33676;51.006;17.180;2023-04-07T08:42:41;100327.33;;;5.09;87.21
47913;BME280;33676;51.006;17.180;2023-04-07T08:45:12;100327.38;;;5.23;87.08
47913;BME280;33676;51.006;17.180;2023-04-07T08:47:41;100327.86;;;5.37;86.90
47913;BME280;33676;51.006;17.180;2023-04-07T08:50:10;100320.91;;;5.46;87.13
47913;BME280;33676;51.006;17.180;2023-04-07T08:55:14;100323.55;;;5.64;87.01
47913;BME280;33676;51.006;17.180;2023-04-07T08:57:43;100322.02;;;5.73;87.28
47913;BME280;33676;51.006;17.180;2023-04-07T09:00:13;100323.53;;;5.79;87.07
47913;BME280;33676;51.006;17.180;2023-04-07T09:02:42;100325.85;;;5.84;86.41
47913;BME280;33676;51.006;17.180;2023-04-07T09:05:12;100326.48;;;5.82;85.83
47913;BME280;33676;51.006;17.180;2023-04-07T09:07:42;100327.10;;;5.80;85.63
47913;BME280;33676;51.006;17.180;2023-04-07T09:10:11;100328.35;;;5.77;85.40
47913;BME280;33676;51.006;17.180;2023-04-07T09:12:39;100330.20;;;5.75;85.47
47913;BME280;33676;51.006;17.180;2023-04-07T09:15:09;100327.06;;;5.70;85.18
47913;BME280;33676;51.006;17.180;2023-04-07T09:17:39;100329.64;;;5.67;85.11
47913;BME280;33676;51.006;17.180;2023-04-07T09:20:08;100323.18;;;5.68;85.35
47913;BME280;33676;51.006;17.180;2023-04-07T09:22:42;100324.27;;;5.72;85.35
47913;BME280;33676;51.006;17.180;2023-04-07T09:25:22;100322.66;;;5.74;85.27
47913;BME280;33676;51.006;17.180;2023-04-07T09:27:58;100319.95;;;5.78;85.76
47913;BME280;33676;51.006;17.180;2023-04-07T09:30:31;100318.21;;;5.84;85.89
47913;BME280;33676;51.006;17.180;2023-04-07T09:33:01;100315.83;;;5.90;85.63
47913;BME280;33676;51.006;17.180;2023-04-07T09:35:29;100320.95;;;5.94;85.39
47913;BME280;33676;51.006;17.180;2023-04-07T09:38:05;100317.39;;;5.96;84.95
47913;BME280;33676;51.006;17.180;2023-04-07T09:40:35;100317.76;;;5.89;84.57
47913;BME280;33676;51.006;17.180;2023-04-07T09:43:16;100318.18;;;5.85;84.94
47913;BME280;33676;51.006;17.180;2023-04-07T09:45:46;100316.88;;;5.83;85.17
47913;BME280;33676;51.006;17.180;2023-04-07T09:48:20;100319.52;;;5.86;85.35
47913;BME280;33676;51.006;17.180;2023-04-07T09:50:49;100316.97;;;5.88;85.31
47913;BME280;33676;51.006;17.180;2023-04-07T09:53:19;100317.36;;;5.87;85.08
47913;BME280;33676;51.006;17.180;2023-04-07T09:55:50;100313.73;;;5.87;85.13
47913;BME280;33676;51.006;17.180;2023-04-07T09:58:19;100315.08;;;5.84;84.82
47913;BME280;33676;51.006;17.180;2023-04-07T10:00:49;100316.09;;;5.82;84.77
47913;BME280;33676;51.006;17.180;2023-04-07T10:03:18;100319.89;;;5.82;85.06
47913;BME280;33676;51.006;17.180;2023-04-07T10:05:46;100318.96;;;5.80;84.99
47913;BME280;33676;51.006;17.180;2023-04-07T10:08:15;100319.58;;;5.85;85.33
47913;BME280;33676;51.006;17.180;2023-04-07T10:10:45;100317.69;;;5.91;85.39
47913;BME280;33676;51.006;17.180;2023-04-07T10:13:15;100317.37;;;5.96;85.24
47913;BME280;33676;51.006;17.180;2023-04-07T10:15:43;100314.77;;;5.96;85.26
47913;BME280;33676;51.006;17.180;2023-04-07T10:18:12;100311.34;;;5.99;85.38
47913;BME280;33676;51.006;17.180;2023-04-07T10:20:42;100312.64;;;6.03;85.59
47913;BME280;33676;51.006;17.180;2023-04-07T10:23:20;100311.91;;;6.07;85.64
47913;BME280;33676;51.006;17.180;2023-04-07T10:25:51;100310.39;;;6.12;85.37
47913;BME280;33676;51.006;17.180;2023-04-07T10:28:24;100306.95;;;6.14;85.08
47913;BME280;33676;51.006;17.180;2023-04-07T10:30:53;100307.73;;;6.18;85.22
47913;BME280;33676;51.006;17.180;2023-04-07T10:33:51;100310.83;;;6.19;84.77
47913;BME280;33676;51.006;17.180;2023-04-07T10:36:22;100305.91;;;6.14;85.01
47913;BME280;33676;51.006;17.180;2023-04-07T10:41:39;100306.80;;;6.17;85.23
47913;BME280;33676;51.006;17.180;2023-04-07T10:47:06;100309.66;;;6.29;85.44
47913;BME280;33676;51.006;17.180;2023-04-07T10:49:35;100313.08;;;6.30;85.34
47913;BME280;33676;51.006;17.180;2023-04-07T10:54:40;100318.64;;;6.24;85.36
47913;BME280;33676;51.006;17.180;2023-04-07T10:57:13;100318.33;;;6.22;85.41
47913;BME280;33676;51.006;17.180;2023-04-07T11:02:40;100321.81;;;6.18;85.15
47913;BME280;33676;51.006;17.180;2023-04-07T11:05:20;100317.95;;;6.19;85.14
47913;BME280;33676;51.006;17.180;2023-04-07T11:07:52;100318.88;;;6.21;85.42
47913;BME280;33676;51.006;17.180;2023-04-07T11:10:22;100321.46;;;6.21;85.68
47913;BME280;33676;51.006;17.180;2023-04-07T11:12:59;100319.56;;;6.15;85.26
47913;BME280;33676;51.006;17.180;2023-04-07T11:15:28;100317.21;;;6.14;85.65
47913;BME280;33676;51.006;17.180;2023-04-07T11:18:12;100318.39;;;6.17;85.70
47913;BME280;33676;51.006;17.180;2023-04-07T11:20:56;100318.17;;;6.18;85.69
47913;BME280;33676;51.006;17.180;2023-04-07T11:23:29;100316.81;;;6.18;85.63
47913;BME280;33676;51.006;17.180;2023-04-07T11:26:04;100313.20;;;6.14;85.60
47913;BME280;33676;51.006;17.180;2023-04-07T11:28:33;100313.54;;;6.12;85.82
47913;BME280;33676;51.006;17.180;2023-04-07T11:31:02;100312.07;;;6.10;85.83
47913;BME280;33676;51.006;17.180;2023-04-07T11:33:31;100313.65;;;6.10;86.10
47913;BME280;33676;51.006;17.180;2023-04-07T11:36:02;100308.45;;;6.12;86.22
47913;BME280;33676;51.006;17.180;2023-04-07T11:38:36;100306.30;;;6.16;86.33
47913;BME280;33676;51.006;17.180;2023-04-07T11:41:25;100307.61;;;6.18;86.24
47913;BME280;33676;51.006;17.180;2023-04-07T11:44:08;100307.41;;;6.12;86.15
47913;BME280;33676;51.006;17.180;2023-04-07T11:46:53;100306.86;;;6.04;86.13
47913;BME280;33676;51.006;17.180;2023-04-07T11:49:26;100306.70;;;5.95;86.27
47913;BME280;33676;51.006;17.180;2023-04-07T11:52:03;100304.70;;;5.87;86.06
47913;BME280;33676;51.006;17.180;2023-04-07T11:54:44;100308.86;;;5.84;86.56
47913;BME280;33676;51.006;17.180;2023-04-07T11:57:27;100301.64;;;5.80;86.75
47913;BME280;33676;51.006;17.180;2023-04-07T12:00:10;100302.92;;;5.76;86.79
47913;BME280;33676;51.006;17.180;2023-04-07T12:02:46;100302.38;;;5.73;86.92
47913;BME280;33676;51.006;17.180;2023-04-07T12:05:16;100305.29;;;5.71;87.00
47913;BME280;33676;51.006;17.180;2023-04-07T12:07:53;100299.19;;;5.72;87.12
47913;BME280;33676;51.006;17.180;2023-04-07T12:10:23;100299.95;;;5.73;87.18
47913;BME280;33676;51.006;17.180;2023-04-07T12:12:54;100303.04;;;5.71;87.15
47913;BME280;33676;51.006;17.180;2023-04-07T12:15:26;100296.27;;;5.68;87.36
47913;BME280;33676;51.006;17.180;2023-04-07T12:17:55;100297.02;;;5.68;87.51
47913;BME280;33676;51.006;17.180;2023-04-07T12:20:23;100293.51;;;5.68;87.68
47913;BME280;33676;51.006;17.180;2023-04-07T12:22:52;100294.46;;;5.70;87.97
47913;BME280;33676;51.006;17.180;2023-04-07T12:25:21;100291.00;;;5.69;87.77
47913;BME280;33676;51.006;17.180;2023-04-07T12:27:49;100289.98;;;5.69;87.84
47913;BME280;33676;51.006;17.180;2023-04-07T12:30:18;100287.49;;;5.70;87.95
47913;BME280;33676;51.006;17.180;2023-04-07T12:32:46;100289.45;;;5.69;88.18
47913;BME280;33676;51.006;17.180;2023-04-07T12:35:15;100286.38;;;5.68;88.06
47913;BME280;33676;51.006;17.180;2023-04-07T12:37:43;100289.27;;;5.70;88.29
47913;BME280;33676;51.006;17.180;2023-04-07T12:40:12;100290.02;;;5.69;88.25
47913;BME280;33676;51.006;17.180;2023-04-07T12:42:40;100285.65;;;5.66;88.23
47913;BME280;33676;51.006;17.180;2023-04-07T12:45:09;100289.73;;;5.64;88.41
47913;BME280;33676;51.006;17.180;2023-04-07T12:47:38;100284.59;;;5.66;88.52
47913;BME280;33676;51.006;17.180;2023-04-07T12:50:06;100282.48;;;5.70;88.67
47913;BME280;33676;51.006;17.180;2023-04-07T12:52:35;100281.66;;;5.74;88.91
47913;BME280;33676;51.006;17.180;2023-04-07T12:55:05;100281.93;;;5.79;88.76
47913;BME280;33676;51.006;17.180;2023-04-07T12:57:34;100281.70;;;5.80;88.78
47913;BME280;33676;51.006;17.180;2023-04-07T13:00:03;100284.54;;;5.79;88.77
47913;BME280;33676;51.006;17.180;2023-04-07T13:02:31;100281.52;;;5.77;88.83
47913;BME280;33676;51.006;17.180;2023-04-07T13:05:00;100278.29;;;5.76;89.02
47913;BME280;33676;51.006;17.180;2023-04-07T13:07:28;100277.13;;;5.75;89.03
47913;BME280;33676;51.006;17.180;2023-04-07T13:09:56;100276.20;;;5.76;89.35
47913;BME280;33676;51.006;17.180;2023-04-07T13:12:25;100274.49;;;5.75;89.18
47913;BME280;33676;51.006;17.180;2023-04-07T13:14:53;100277.09;;;5.73;89.18
47913;BME280;33676;51.006;17.180;2023-04-07T13:17:28;100274.95;;;5.71;89.23
47913;BME280;33676;51.006;17.180;2023-04-07T13:19:56;100273.36;;;5.71;89.26
47913;BME280;33676;51.006;17.180;2023-04-07T13:22:25;100271.98;;;5.71;89.29
47913;BME280;33676;51.006;17.180;2023-04-07T13:24:53;100274.39;;;5.72;89.50
47913;BME280;33676;51.006;17.180;2023-04-07T13:27:22;100273.08;;;5.70;89.49
47913;BME280;33676;51.006;17.180;2023-04-07T13:29:50;100281.66;;;5.69;89.42
47913;BME280;33676;51.006;17.180;2023-04-07T13:32:18;100282.62;;;5.67;89.40
47913;BME280;33676;51.006;17.180;2023-04-07T13:34:47;100285.40;;;5.67;89.59
47913;BME280;33676;51.006;17.180;2023-04-07T13:37:15;100280.84;;;5.68;89.75
47913;BME280;33676;51.006;17.180;2023-04-07T13:39:46;100280.18;;;5.71;89.81
47913;BME280;33676;51.006;17.180;2023-04-07T13:42:14;100279.92;;;5.72;89.85
47913;BME280;33676;51.006;17.180;2023-04-07T13:44:47;100275.68;;;5.73;89.81
47913;BME280;33676;51.006;17.180;2023-04-07T13:47:17;100273.55;;;5.74;89.91